sensor_id;sensor_type;location;lat;lon;timestamp;pressure;altitude;pressure_sealevel;temperature;humidity
74613;BME280;63119;51.788;8.824;2023-08-12T00:00:10;100162.94;;;21.02;76.10
74613;BME280;63119;51.788;8.824;2023-08-12T00:02:40;100159.72;;;20.99;76.51
74613;BME280;63119;51.788;8.824;2023-08-12T00:05:06;100166.97;;;20.98;76.63
74613;BME280;63119;51.788;8.824;2023-08-12T00:07:33;100164.44;;;20.97;76.94
74613;BME280;63119;51.788;8.824;2023-08-12T00:10:00;100160.91;;;20.88;77.60
74613;BME280;63119;51.788;8.824;2023-08-12T00:12:28;100164.94;;;20.84;77.45
74613;BME280;63119;51.788;8.824;2023-08-12T00:14:54;100158.69;;;20.84;76.94
74613;BME280;63119;51.788;8.824;2023-08-12T00:17:19;100156.84;;;20.84;77.66
74613;BME280;63119;51.788;8.824;2023-08-12T00:19:44;100157.19;;;20.73;78.09
74613;BME280;63119;51.788;8.824;2023-08-12T00:22:10;100150.06;;;20.64;78.58
74613;BME280;63119;51.788;8.824;2023-08-12T00:24:35;100158.66;;;20.67;78.53
74613;BME280;63119;51.788;8.824;2023-08-12T00:27:00;100158.66;;;20.59;78.97
74613;BME280;63119;51.788;8.824;2023-08-12T00:29:26;100161.00;;;20.62;79.02
74613;BME280;63119;51.788;8.824;2023-08-12T00:31:51;100154.13;;;20.60;78.96
74613;BME280;63119;51.788;8.824;2023-08-12T00:34:17;100145.19;;;20.59;79.03
74613;BME280;63119;51.788;8.824;2023-08-12T00:36:42;100143.88;;;20.63;79.12
74613;BME280;63119;51.788;8.824;2023-08-12T00:39:07;100145.41;;;20.66;79.27
74613;BME280;63119;51.788;8.824;2023-08-12T00:41:33;100155.97;;;20.59;79.16
74613;BME280;63119;51.788;8.824;2023-08-12T00:43:58;100177.63;;;20.58;79.67
74613;BME280;63119;51.788;8.824;2023-08-12T00:46:23;100179.19;;;20.77;77.05
74613;BME280;63119;51.788;8.824;2023-08-12T00:48:49;100182.84;;;21.34;72.61
74613;BME280;63119;51.788;8.824;2023-08-12T00:51:16;100186.34;;;21.58;71.70
74613;BME280;63119;51.788;8.824;2023-08-12T00:53:42;100186.34;;;21.74;70.88
74613;BME280;63119;51.788;8.824;2023-08-12T00:56:08;100183.28;;;21.86;70.29
74613;BME280;63119;51.788;8.824;2023-08-12T00:58:33;100186.34;;;21.91;70.24
74613;BME280;63119;51.788;8.824;2023-08-12T01:00:59;100185.81;;;21.95;69.94
74613;BME280;63119;51.788;8.824;2023-08-12T01:03:24;100186.66;;;21.96;70.29
74613;BME280;63119;51.788;8.824;2023-08-12T01:05:50;100193.06;;;21.95;70.56
74613;BME280;63119;51.788;8.824;2023-08-12T01:08:15;100196.09;;;22.00;70.90
74613;BME280;63119;51.788;8.824;2023-08-12T01:10:45;100190.34;;;21.95;71.73
74613;BME280;63119;51.788;8.824;2023-08-12T01:16:16;100190.72;;;21.92;72.73
74613;BME280;63119;51.788;8.824;2023-08-12T01:18:42;100193.75;;;21.97;72.76
74613;BME280;63119;51.788;8.824;2023-08-12T01:21:10;100195.44;;;21.90;73.20
74613;BME280;63119;51.788;8.824;2023-08-12T01:23:39;100201.81;;;21.80;74.16
74613;BME280;63119;51.788;8.824;2023-08-12T01:26:04;100190.53;;;21.85;74.22
74613;BME280;63119;51.788;8.824;2023-08-12T01:28:29;100185.31;;;21.84;74.32
74613;BME280;63119;51.788;8.824;2023-08-12T01:31:06;100168.81;;;21.87;74.46
74613;BME280;63119;51.788;8.824;2023-08-12T01:33:55;100163.28;;;21.88;74.70
74613;BME280;63119;51.788;8.824;2023-08-12T01:36:24;100160.41;;;21.82;75.21
74613;BME280;63119;51.788;8.824;2023-08-12T01:38:51;100163.44;;;21.78;75.02
74613;BME280;63119;51.788;8.824;2023-08-12T01:41:18;100165.78;;;21.73;75.21
74613;BME280;63119;51.788;8.824;2023-08-12T01:43:46;100165.66;;;21.67;75.36
74613;BME280;63119;51.788;8.824;2023-08-12T01:46:11;100170.19;;;21.66;75.63
74613;BME280;63119;51.788;8.824;2023-08-12T01:48:36;100164.47;;;21.69;75.59
74613;BME280;63119;51.788;8.824;2023-08-12T01:51:02;100160.06;;;21.76;75.38
74613;BME280;63119;51.788;8.824;2023-08-12T01:53:28;100164.63;;;21.76;75.51
74613;BME280;63119;51.788;8.824;2023-08-12T01:55:53;100172.88;;;21.74;75.72
74613;BME280;63119;51.788;8.824;2023-08-12T01:58:18;100177.78;;;21.63;76.07
74613;BME280;63119;51.788;8.824;2023-08-12T02:00:44;100180.28;;;21.64;76.52
74613;BME280;63119;51.788;8.824;2023-08-12T02:03:09;100185.84;;;21.63;76.47
74613;BME280;63119;51.788;8.824;2023-08-12T02:05:34;100197.31;;;21.57;76.47
74613;BME280;63119;51.788;8.824;2023-08-12T02:08:02;100201.53;;;21.51;76.57
74613;BME280;63119;51.788;8.824;2023-08-12T02:10:28;100208.75;;;21.51;76.74
74613;BME280;63119;51.788;8.824;2023-08-12T02:12:54;100212.13;;;21.37;77.27
74613;BME280;63119;51.788;8.824;2023-08-12T02:15:19;100204.22;;;21.27;77.92
74613;BME280;63119;51.788;8.824;2023-08-12T02:17:44;100196.47;;;21.32;78.00
74613;BME280;63119;51.788;8.824;2023-08-12T02:20:10;100184.00;;;21.23;78.39
74613;BME280;63119;51.788;8.824;2023-08-12T02:22:35;100177.28;;;21.27;78.12
74613;BME280;63119;51.788;8.824;2023-08-12T02:25:00;100183.66;;;21.26;78.39
74613;BME280;63119;51.788;8.824;2023-08-12T02:27:26;100195.09;;;21.20;78.69
74613;BME280;63119;51.788;8.824;2023-08-12T02:29:51;100204.19;;;21.19;78.56
74613;BME280;63119;51.788;8.824;2023-08-12T02:32:16;100206.53;;;21.14;79.14
74613;BME280;63119;51.788;8.824;2023-08-12T02:34:41;100205.88;;;21.12;79.45
74613;BME280;63119;51.788;8.824;2023-08-12T02:37:07;100202.66;;;21.08;79.46
74613;BME280;63119;51.788;8.824;2023-08-12T02:39:32;100193.41;;;21.11;79.26
74613;BME280;63119;51.788;8.824;2023-08-12T02:41:57;100186.34;;;21.10;79.43
74613;BME280;63119;51.788;8.824;2023-08-12T02:44:22;100188.66;;;21.05;79.56
74613;BME280;63119;51.788;8.824;2023-08-12T02:46:48;100188.28;;;20.92;80.17
74613;BME280;63119;51.788;8.824;2023-08-12T02:49:13;100200.09;;;20.99;79.71
74613;BME280;63119;51.788;8.824;2023-08-12T02:51:38;100206.84;;;21.03;79.76
74613;BME280;63119;51.788;8.824;2023-08-12T02:54:04;100192.19;;;21.05;79.84
74613;BME280;63119;51.788;8.824;2023-08-12T02:56:29;100186.50;;;21.00;80.25
74613;BME280;63119;51.788;8.824;2023-08-12T02:58:54;100194.38;;;21.02;80.33
74613;BME280;63119;51.788;8.824;2023-08-12T03:01:20;100197.59;;;20.97;80.93
74613;BME280;63119;51.788;8.824;2023-08-12T03:03:46;100200.09;;;20.91;81.20
74613;BME280;63119;51.788;8.824;2023-08-12T03:06:11;100204.44;;;20.92;81.54
74613;BME280;63119;51.788;8.824;2023-08-12T03:08:36;100203.75;;;20.82;82.08
74613;BME280;63119;51.788;8.824;2023-08-12T03:11:02;100200.38;;;20.80;82.49
74613;BME280;63119;51.788;8.824;2023-08-12T03:13:28;100205.91;;;20.70;83.02
74613;BME280;63119;51.788;8.824;2023-08-12T03:15:54;100197.16;;;20.68;83.07
74613;BME280;63119;51.788;8.824;2023-08-12T03:18:19;100207.59;;;20.71;83.40
74613;BME280;63119;51.788;8.824;2023-08-12T03:20:44;100202.00;;;20.64;84.48
74613;BME280;63119;51.788;8.824;2023-08-12T03:23:09;100207.38;;;20.56;85.30
74613;BME280;63119;51.788;8.824;2023-08-12T03:25:35;100201.00;;;20.57;85.90
74613;BME280;63119;51.788;8.824;2023-08-12T03:28:00;100195.91;;;20.46;86.34
74613;BME280;63119;51.788;8.824;2023-08-12T03:30:25;100196.53;;;20.40;87.03
74613;BME280;63119;51.788;8.824;2023-08-12T03:32:51;100194.56;;;20.42;87.53
74613;BME280;63119;51.788;8.824;2023-08-12T03:35:17;100191.22;;;20.48;87.15
74613;BME280;63119;51.788;8.824;2023-08-12T03:37:42;100192.19;;;20.39;88.17
74613;BME280;63119;51.788;8.824;2023-08-12T03:40:08;100188.34;;;20.50;87.74
74613;BME280;63119;51.788;8.824;2023-08-12T03:42:33;100185.53;;;20.51;88.19
74613;BME280;63119;51.788;8.824;2023-08-12T03:44:58;100187.16;;;20.44;88.31
74613;BME280;63119;51.788;8.824;2023-08-12T03:47:23;100189.44;;;20.31;89.23
74613;BME280;63119;51.788;8.824;2023-08-12T03:49:49;100197.50;;;20.31;89.63
74613;BME280;63119;51.788;8.824;2023-08-12T03:52:15;100202.47;;;20.18;90.37
74613;BME280;63119;51.788;8.824;2023-08-12T03:54:40;100197.50;;;20.31;89.36
74613;BME280;63119;51.788;8.824;2023-08-12T03:57:05;100200.81;;;20.25;90.61
74613;BME280;63119;51.788;8.824;2023-08-12T03:59:30;100198.44;;;20.22;91.33
74613;BME280;63119;51.788;8.824;2023-08-12T04:01:56;100199.28;;;20.23;92.11
74613;BME280;63119;51.788;8.824;2023-08-12T04:04:22;100195.41;;;20.17;94.29
74613;BME280;63119;51.788;8.824;2023-08-12T04:06:47;100200.59;;;20.18;94.21
74613;BME280;63119;51.788;8.824;2023-08-12T04:09:16;100196.81;;;20.03;96.24
74613;BME280;63119;51.788;8.824;2023-08-12T04:11:41;100198.09;;;19.91;97.52
74613;BME280;63119;51.788;8.824;2023-08-12T04:14:07;100198.09;;;19.91;98.03
74613;BME280;63119;51.788;8.824;2023-08-12T04:16:32;100194.44;;;19.92;98.02
74613;BME280;63119;51.788;8.824;2023-08-12T04:18:58;100189.69;;;19.86;98.76
74613;BME280;63119;51.788;8.824;2023-08-12T04:21:23;100192.53;;;19.85;99.02
74613;BME280;63119;51.788;8.824;2023-08-12T04:23:48;100191.28;;;19.97;98.65
74613;BME280;63119;51.788;8.824;2023-08-12T04:26:13;100194.63;;;19.99;98.51
74613;BME280;63119;51.788;8.824;2023-08-12T04:28:39;100191.06;;;19.90;100.00
74613;BME280;63119;51.788;8.824;2023-08-12T04:31:06;100190.88;;;19.92;100.00
74613;BME280;63119;51.788;8.824;2023-08-12T04:33:33;100178.88;;;20.04;99.14
74613;BME280;63119;51.788;8.824;2023-08-12T04:35:58;100179.94;;;20.11;99.23
74613;BME280;63119;51.788;8.824;2023-08-12T04:38:23;100179.03;;;20.02;100.00
74613;BME280;63119;51.788;8.824;2023-08-12T04:40:49;100169.25;;;19.93;100.00
74613;BME280;63119;51.788;8.824;2023-08-12T04:43:14;100167.47;;;20.10;99.17
74613;BME280;63119;51.788;8.824;2023-08-12T04:45:39;100166.78;;;20.00;99.65
74613;BME280;63119;51.788;8.824;2023-08-12T04:48:05;100162.81;;;20.12;98.48
74613;BME280;63119;51.788;8.824;2023-08-12T04:50:31;100157.75;;;20.09;99.74
74613;BME280;63119;51.788;8.824;2023-08-12T04:52:59;100160.06;;;20.04;100.00
74613;BME280;63119;51.788;8.824;2023-08-12T04:55:25;100155.72;;;20.03;100.00
74613;BME280;63119;51.788;8.824;2023-08-12T04:57:50;100151.03;;;20.13;99.44
74613;BME280;63119;51.788;8.824;2023-08-12T05:00:16;100142.13;;;20.12;100.00
74613;BME280;63119;51.788;8.824;2023-08-12T05:02:42;100142.88;;;20.23;98.90
74613;BME280;63119;51.788;8.824;2023-08-12T05:05:08;100146.53;;;20.13;99.73
74613;BME280;63119;51.788;8.824;2023-08-12T05:07:33;100143.38;;;20.18;99.50
74613;BME280;63119;51.788;8.824;2023-08-12T05:09:59;100132.78;;;20.25;99.42
74613;BME280;63119;51.788;8.824;2023-08-12T05:12:24;100128.22;;;20.09;100.00
74613;BME280;63119;51.788;8.824;2023-08-12T05:14:49;100130.50;;;20.04;100.00
74613;BME280;63119;51.788;8.824;2023-08-12T05:17:15;100118.66;;;20.14;100.00
74613;BME280;63119;51.788;8.824;2023-08-12T05:19:40;100124.91;;;20.23;100.00
74613;BME280;63119;51.788;8.824;2023-08-12T05:22:05;100123.84;;;20.16;100.00
74613;BME280;63119;51.788;8.824;2023-08-12T05:24:31;100117.28;;;20.10;100.00
74613;BME280;63119;51.788;8.824;2023-08-12T05:26:56;100119.50;;;20.15;100.00
74613;BME280;63119;51.788;8.824;2023-08-12T05:29:21;100108.09;;;20.21;100.00
74613;BME280;63119;51.788;8.824;2023-08-12T05:31:47;100109.75;;;20.22;100.00
74613;BME280;63119;51.788;8.824;2023-08-12T05:34:12;100118.47;;;20.08;100.00
74613;BME280;63119;51.788;8.824;2023-08-12T05:36:37;100110.19;;;20.01;100.00
74613;BME280;63119;51.788;8.824;2023-08-12T05:39:02;100112.00;;;19.93;100.00
74613;BME280;63119;51.788;8.824;2023-08-12T05:41:28;100108.34;;;20.02;100.00
74613;BME280;63119;51.788;8.824;2023-08-12T05:43:54;100104.81;;;20.01;100.00
74613;BME280;63119;51.788;8.824;2023-08-12T05:46:19;100109.88;;;20.04;100.00
74613;BME280;63119;51.788;8.824;2023-08-12T05:48:44;100111.34;;;19.91;100.00
74613;BME280;63119;51.788;8.824;2023-08-12T05:51:10;100098.72;;;19.91;100.00
74613;BME280;63119;51.788;8.824;2023-08-12T05:53:35;100087.00;;;19.92;100.00
74613;BME280;63119;51.788;8.824;2023-08-12T05:56:01;100094.56;;;19.97;100.00
74613;BME280;63119;51.788;8.824;2023-08-12T05:58:26;100090.88;;;19.98;100.00
74613;BME280;63119;51.788;8.824;2023-08-12T06:00:51;100072.78;;;20.08;100.00
74613;BME280;63119;51.788;8.824;2023-08-12T06:03:17;100085.06;;;20.18;100.00
74613;BME280;63119;51.788;8.824;2023-08-12T06:05:44;100076.84;;;20.12;100.00
74613;BME280;63119;51.788;8.824;2023-08-12T06:08:10;100070.69;;;20.28;100.00
74613;BME280;63119;51.788;8.824;2023-08-12T06:10:35;100077.59;;;20.38;100.00
74613;BME280;63119;51.788;8.824;2023-08-12T06:13:00;100069.56;;;20.46;100.00
74613;BME280;63119;51.788;8.824;2023-08-12T06:15:26;100071.25;;;20.47;100.00
74613;BME280;63119;51.788;8.824;2023-08-12T06:17:51;100071.25;;;20.47;100.00
74613;BME280;63119;51.788;8.824;2023-08-12T06:20:17;100064.53;;;20.51;100.00
74613;BME280;63119;51.788;8.824;2023-08-12T06:22:42;100061.66;;;20.53;100.00
74613;BME280;63119;51.788;8.824;2023-08-12T06:25:08;100058.31;;;20.51;100.00
74613;BME280;63119;51.788;8.824;2023-08-12T06:27:33;100062.19;;;20.48;100.00
74613;BME280;63119;51.788;8.824;2023-08-12T06:29:58;100051.25;;;20.58;100.00
74613;BME280;63119;51.788;8.824;2023-08-12T06:32:24;100056.16;;;20.54;100.00
74613;BME280;63119;51.788;8.824;2023-08-12T06:34:49;100042.38;;;20.57;100.00
74613;BME280;63119;51.788;8.824;2023-08-12T06:37:14;100044.19;;;20.49;100.00
74613;BME280;63119;51.788;8.824;2023-08-12T06:39:39;100046.22;;;20.63;100.00
74613;BME280;63119;51.788;8.824;2023-08-12T06:42:05;100038.97;;;20.55;100.00
74613;BME280;63119;51.788;8.824;2023-08-12T06:44:30;100031.25;;;20.36;100.00
74613;BME280;63119;51.788;8.824;2023-08-12T06:46:55;100029.56;;;20.27;100.00
74613;BME280;63119;51.788;8.824;2023-08-12T06:49:21;100037.09;;;20.40;100.00
74613;BME280;63119;51.788;8.824;2023-08-12T06:51:46;100040.81;;;20.39;100.00
74613;BME280;63119;51.788;8.824;2023-08-12T06:54:12;100043.00;;;20.43;100.00
74613;BME280;63119;51.788;8.824;2023-08-12T06:56:37;100044.03;;;20.50;100.00
74613;BME280;63119;51.788;8.824;2023-08-12T06:59:03;100044.03;;;20.50;100.00
74613;BME280;63119;51.788;8.824;2023-08-12T07:01:28;100043.03;;;20.59;100.00
74613;BME280;63119;51.788;8.824;2023-08-12T07:03:53;100041.34;;;20.58;100.00
74613;BME280;63119;51.788;8.824;2023-08-12T07:06:18;100034.63;;;20.70;100.00
74613;BME280;63119;51.788;8.824;2023-08-12T07:08:44;100039.84;;;20.72;99.67
74613;BME280;63119;51.788;8.824;2023-08-12T07:11:09;100034.63;;;20.87;98.90
74613;BME280;63119;51.788;8.824;2023-08-12T07:13:34;100041.03;;;20.94;96.95
74613;BME280;63119;51.788;8.824;2023-08-12T07:16:00;100044.72;;;21.01;95.88
74613;BME280;63119;51.788;8.824;2023-08-12T07:18:26;100045.72;;;21.08;96.31
74613;BME280;63119;51.788;8.824;2023-08-12T07:20:51;100048.78;;;21.21;96.01
74613;BME280;63119;51.788;8.824;2023-08-12T07:23:16;100053.16;;;21.14;95.29
74613;BME280;63119;51.788;8.824;2023-08-12T07:25:41;100042.53;;;21.20;95.46
74613;BME280;63119;51.788;8.824;2023-08-12T07:28:07;100054.50;;;21.18;95.14
74613;BME280;63119;51.788;8.824;2023-08-12T07:30:34;100047.59;;;20.99;95.66
74613;BME280;63119;51.788;8.824;2023-08-12T07:33:00;100044.03;;;21.07;96.61
74613;BME280;63119;51.788;8.824;2023-08-12T07:35:26;100040.69;;;20.97;96.66
74613;BME280;63119;51.788;8.824;2023-08-12T07:37:51;100036.97;;;21.22;95.11
74613;BME280;63119;51.788;8.824;2023-08-12T07:40:16;100042.75;;;21.66;94.65
74613;BME280;63119;51.788;8.824;2023-08-12T07:42:42;100047.88;;;22.00;91.10
74613;BME280;63119;51.788;8.824;2023-08-12T07:45:08;100049.94;;;21.90;91.94
74613;BME280;63119;51.788;8.824;2023-08-12T07:47:34;100051.22;;;22.10;90.66
74613;BME280;63119;51.788;8.824;2023-08-12T07:49:59;100049.59;;;21.93;90.67
74613;BME280;63119;51.788;8.824;2023-08-12T07:52:24;100049.56;;;22.31;90.26
74613;BME280;63119;51.788;8.824;2023-08-12T07:54:50;100040.78;;;22.60;88.27
74613;BME280;63119;51.788;8.824;2023-08-12T07:57:15;100038.66;;;23.16;85.79
74613;BME280;63119;51.788;8.824;2023-08-12T07:59:41;100034.41;;;23.36;82.12
74613;BME280;63119;51.788;8.824;2023-08-12T08:02:08;100032.50;;;23.74;82.66
74613;BME280;63119;51.788;8.824;2023-08-12T08:04:33;100031.44;;;23.60;81.63
74613;BME280;63119;51.788;8.824;2023-08-12T08:06:59;100023.59;;;23.94;80.02
74613;BME280;63119;51.788;8.824;2023-08-12T08:09:24;100020.25;;;24.64;77.79
74613;BME280;63119;51.788;8.824;2023-08-12T08:11:49;100026.81;;;24.97;77.89
74613;BME280;63119;51.788;8.824;2023-08-12T08:14:15;100026.25;;;24.24;77.49
74613;BME280;63119;51.788;8.824;2023-08-12T08:16:40;100036.09;;;23.66;79.99
74613;BME280;63119;51.788;8.824;2023-08-12T08:19:06;100028.56;;;23.47;80.31
74613;BME280;63119;51.788;8.824;2023-08-12T08:21:33;100018.06;;;23.52;80.68
74613;BME280;63119;51.788;8.824;2023-08-12T08:23:58;100020.50;;;23.10;79.28
74613;BME280;63119;51.788;8.824;2023-08-12T08:26:23;100013.22;;;23.10;80.84
74613;BME280;63119;51.788;8.824;2023-08-12T08:28:49;100009.34;;;23.13;82.49
74613;BME280;63119;51.788;8.824;2023-08-12T08:31:14;100006.63;;;23.13;81.39
74613;BME280;63119;51.788;8.824;2023-08-12T08:33:39;99997.44;;;22.84;84.29
74613;BME280;63119;51.788;8.824;2023-08-12T08:36:04;99994.00;;;22.91;83.73
74613;BME280;63119;51.788;8.824;2023-08-12T08:38:30;99991.09;;;22.77;85.77
74613;BME280;63119;51.788;8.824;2023-08-12T08:40:57;99988.72;;;22.82;84.77
74613;BME280;63119;51.788;8.824;2023-08-12T08:43:23;99979.38;;;22.70;85.97
74613;BME280;63119;51.788;8.824;2023-08-12T08:45:52;99975.84;;;22.62;86.98
74613;BME280;63119;51.788;8.824;2023-08-12T08:48:19;99981.44;;;22.60;87.11
74613;BME280;63119;51.788;8.824;2023-08-12T08:50:45;99990.97;;;22.48;87.09
74613;BME280;63119;51.788;8.824;2023-08-12T08:53:11;99986.19;;;22.58;88.60
74613;BME280;63119;51.788;8.824;2023-08-12T08:55:40;99988.38;;;22.32;88.05
74613;BME280;63119;51.788;8.824;2023-08-12T08:58:06;99989.44;;;22.31;90.01
74613;BME280;63119;51.788;8.824;2023-08-12T09:00:31;99981.38;;;22.23;90.56
74613;BME280;63119;51.788;8.824;2023-08-12T09:02:57;99991.44;;;22.29;92.64
74613;BME280;63119;51.788;8.824;2023-08-12T09:05:23;99998.03;;;22.26;90.38
74613;BME280;63119;51.788;8.824;2023-08-12T09:07:49;100006.50;;;22.46;92.11
74613;BME280;63119;51.788;8.824;2023-08-12T09:10:15;100004.09;;;22.51;91.64
74613;BME280;63119;51.788;8.824;2023-08-12T09:12:42;100000.31;;;22.60;92.19
74613;BME280;63119;51.788;8.824;2023-08-12T09:15:08;99996.81;;;22.82;91.43
74613;BME280;63119;51.788;8.824;2023-08-12T09:17:34;99999.34;;;23.13;89.94
74613;BME280;63119;51.788;8.824;2023-08-12T09:19:59;100007.69;;;23.41;89.58
74613;BME280;63119;51.788;8.824;2023-08-12T09:22:25;100007.28;;;24.03;88.21
74613;BME280;63119;51.788;8.824;2023-08-12T09:24:56;100007.19;;;24.68;85.83
74613;BME280;63119;51.788;8.824;2023-08-12T09:27:23;100009.06;;;25.16;79.59
74613;BME280;63119;51.788;8.824;2023-08-12T09:29:48;100004.06;;;25.82;79.38
74613;BME280;63119;51.788;8.824;2023-08-12T09:32:20;99999.16;;;26.12;75.48
74613;BME280;63119;51.788;8.824;2023-08-12T09:37:13;99985.38;;;25.25;73.40
74613;BME280;63119;51.788;8.824;2023-08-12T09:39:39;99995.75;;;25.96;73.15
74613;BME280;63119;51.788;8.824;2023-08-12T09:42:05;99986.06;;;25.68;69.36
74613;BME280;63119;51.788;8.824;2023-08-12T09:44:30;99978.31;;;25.30;71.40
74613;BME280;63119;51.788;8.824;2023-08-12T09:46:56;99975.44;;;25.38;71.52
74613;BME280;63119;51.788;8.824;2023-08-12T09:49:22;99971.75;;;25.46;70.45
74613;BME280;63119;51.788;8.824;2023-08-12T09:51:48;99971.94;;;25.79;70.04
74613;BME280;63119;51.788;8.824;2023-08-12T09:54:13;99952.75;;;25.80;71.87
74613;BME280;63119;51.788;8.824;2023-08-12T09:56:40;99957.00;;;25.21;72.21
74613;BME280;63119;51.788;8.824;2023-08-12T09:59:07;99958.94;;;24.99;74.75
74613;BME280;63119;51.788;8.824;2023-08-12T10:01:33;99959.88;;;25.13;73.88
74613;BME280;63119;51.788;8.824;2023-08-12T10:03:59;99964.19;;;25.35;72.61
74613;BME280;63119;51.788;8.824;2023-08-12T10:06:25;99962.25;;;25.63;72.87
74613;BME280;63119;51.788;8.824;2023-08-12T10:08:51;99964.19;;;25.35;72.12
74613;BME280;63119;51.788;8.824;2023-08-12T10:11:17;99968.34;;;25.65;73.04
74613;BME280;63119;51.788;8.824;2023-08-12T10:13:42;99964.97;;;25.63;70.68
74613;BME280;63119;51.788;8.824;2023-08-12T10:16:09;99962.47;;;25.62;71.80
74613;BME280;63119;51.788;8.824;2023-08-12T10:18:36;99967.50;;;25.02;73.12
74613;BME280;63119;51.788;8.824;2023-08-12T10:21:03;99957.22;;;25.53;72.93
74613;BME280;63119;51.788;8.824;2023-08-12T10:23:29;99958.16;;;25.74;73.45
74613;BME280;63119;51.788;8.824;2023-08-12T10:25:55;99961.69;;;26.28;71.86
74613;BME280;63119;51.788;8.824;2023-08-12T10:28:22;99957.09;;;26.29;69.98
74613;BME280;63119;51.788;8.824;2023-08-12T10:30:48;99957.09;;;26.29;68.24
74613;BME280;63119;51.788;8.824;2023-08-12T10:33:14;99955.47;;;26.47;69.64
74613;BME280;63119;51.788;8.824;2023-08-12T10:35:46;99954.19;;;26.37;69.38
74613;BME280;63119;51.788;8.824;2023-08-12T10:38:14;99949.16;;;26.34;69.51
74613;BME280;63119;51.788;8.824;2023-08-12T10:40:42;99947.28;;;26.34;67.99
74613;BME280;63119;51.788;8.824;2023-08-12T10:43:07;99946.69;;;26.52;66.96
74613;BME280;63119;51.788;8.824;2023-08-12T10:45:46;99928.72;;;26.51;67.60
74613;BME280;63119;51.788;8.824;2023-08-12T10:48:18;99945.44;;;26.61;67.05
74613;BME280;63119;51.788;8.824;2023-08-12T10:50:55;99936.47;;;26.67;67.70
74613;BME280;63119;51.788;8.824;2023-08-12T10:53:23;99929.97;;;26.48;68.01
74613;BME280;63119;51.788;8.824;2023-08-12T10:55:50;99937.47;;;26.27;66.94
74613;BME280;63119;51.788;8.824;2023-08-12T10:58:27;99927.56;;;25.99;68.29
74613;BME280;63119;51.788;8.824;2023-08-12T11:00:54;99927.34;;;25.94;68.45
74613;BME280;63119;51.788;8.824;2023-08-12T11:03:20;99935.22;;;25.76;70.17
74613;BME280;63119;51.788;8.824;2023-08-12T11:05:45;99940.84;;;25.81;69.64
74613;BME280;63119;51.788;8.824;2023-08-12T11:08:13;99937.97;;;25.83;69.68
74613;BME280;63119;51.788;8.824;2023-08-12T11:10:38;99926.09;;;25.90;70.20
74613;BME280;63119;51.788;8.824;2023-08-12T11:13:04;99936.53;;;25.87;69.90
74613;BME280;63119;51.788;8.824;2023-08-12T11:18:24;99950.44;;;25.71;71.01
74613;BME280;63119;51.788;8.824;2023-08-12T11:20:48;99952.19;;;25.50;71.76
74613;BME280;63119;51.788;8.824;2023-08-12T11:23:14;99947.13;;;25.41;72.83
74613;BME280;63119;51.788;8.824;2023-08-12T11:25:42;99942.50;;;25.35;72.88
74613;BME280;63119;51.788;8.824;2023-08-12T11:28:08;99937.06;;;25.28;73.08
74613;BME280;63119;51.788;8.824;2023-08-12T11:30:33;99945.63;;;25.38;73.67
74613;BME280;63119;51.788;8.824;2023-08-12T11:33:00;99940.84;;;25.34;73.30
74613;BME280;63119;51.788;8.824;2023-08-12T11:35:26;99952.13;;;25.85;71.66
74613;BME280;63119;51.788;8.824;2023-08-12T11:37:53;99948.22;;;25.94;69.98
74613;BME280;63119;51.788;8.824;2023-08-12T11:40:20;99945.75;;;25.99;69.61
74613;BME280;63119;51.788;8.824;2023-08-12T11:42:47;99951.38;;;26.04;70.06
74613;BME280;63119;51.788;8.824;2023-08-12T11:45:16;99949.97;;;26.21;69.50
74613;BME280;63119;51.788;8.824;2023-08-12T11:47:41;99940.78;;;26.16;69.28
74613;BME280;63119;51.788;8.824;2023-08-12T11:50:08;99948.31;;;26.27;69.45
74613;BME280;63119;51.788;8.824;2023-08-12T11:52:34;99956.47;;;26.20;65.99
74613;BME280;63119;51.788;8.824;2023-08-12T11:55:00;99947.81;;;26.03;64.28
74613;BME280;63119;51.788;8.824;2023-08-12T11:57:26;99941.78;;;26.01;63.47
74613;BME280;63119;51.788;8.824;2023-08-12T11:59:58;99941.78;;;26.15;63.57
74613;BME280;63119;51.788;8.824;2023-08-12T12:02:24;99941.66;;;26.29;63.99
74613;BME280;63119;51.788;8.824;2023-08-12T12:04:51;99944.59;;;26.41;63.63
74613;BME280;63119;51.788;8.824;2023-08-12T12:07:21;99933.94;;;26.72;62.99
74613;BME280;63119;51.788;8.824;2023-08-12T12:09:50;99936.25;;;27.08;61.62
74613;BME280;63119;51.788;8.824;2023-08-12T12:12:15;99934.16;;;27.17;61.86
74613;BME280;63119;51.788;8.824;2023-08-12T12:14:42;99932.47;;;27.15;62.21
74613;BME280;63119;51.788;8.824;2023-08-12T12:17:08;99932.50;;;26.96;60.98
74613;BME280;63119;51.788;8.824;2023-08-12T12:19:40;99932.72;;;26.68;61.58
74613;BME280;63119;51.788;8.824;2023-08-12T12:22:06;99932.03;;;26.33;61.85
74613;BME280;63119;51.788;8.824;2023-08-12T12:24:44;99923.91;;;26.33;61.82
74613;BME280;63119;51.788;8.824;2023-08-12T12:27:11;99919.97;;;26.29;61.28
74613;BME280;63119;51.788;8.824;2023-08-12T12:29:36;99915.72;;;26.14;61.38
74613;BME280;63119;51.788;8.824;2023-08-12T12:32:02;99922.00;;;26.21;61.92
74613;BME280;63119;51.788;8.824;2023-08-12T12:34:27;99924.16;;;26.38;60.80
74613;BME280;63119;51.788;8.824;2023-08-12T12:36:52;99918.50;;;26.53;61.22
74613;BME280;63119;51.788;8.824;2023-08-12T12:39:18;99922.88;;;26.54;60.57
74613;BME280;63119;51.788;8.824;2023-08-12T12:41:43;99902.84;;;26.55;61.38
74613;BME280;63119;51.788;8.824;2023-08-12T12:44:08;99899.94;;;26.50;61.46
74613;BME280;63119;51.788;8.824;2023-08-12T12:46:34;99904.28;;;26.64;60.19
74613;BME280;63119;51.788;8.824;2023-08-12T12:49:00;99907.41;;;26.48;60.59
74613;BME280;63119;51.788;8.824;2023-08-12T12:51:25;99914.94;;;26.39;61.22